Greens Farms, Connecticut
Current Conditions -  °F | °C
As of 2:52 AM on Thursday 18 Dec 2014 (Local Time) from KBDR Reporting Station
Overcast Overcast  
Wind Chill: 35°   Ceiling: 5000
Heat Index: 41°   Visibility: 10mi
Dew Point: 29°   Wind: 10mph
Humidity: 62%   Direction: 270°W
Pressure: 29.86"   Gusts: NA
Location:  41.12°N, 73.32°W
Report Text: KBDR 180752Z 27009KT 10SM FEW035 BKN050 OVC080 05/M02 A2986 RMK AO2 SLP109 T00501017
Loading
Personal Weather Stations






























Interactive Weather Map New forecast layout! Learn more

10-Day Weather Forecast

Advertisements
Track Severe Weather on mobile